Time;durP1;ratioP1;P1;durP2;ratioP2;P2;SDS_P1;SDS_P2;PMS_P1;PMS_P2;Temp;Humidity;BMP_temperature;BMP_pressure;BME280_temperature;BME280_humidity;BME280_pressure;Samples;Min_cycle;Max_cycle;Signal;HPM_P1;HPM_P2
2021/06/25 00:00:16;;;;;;;7.20;5.25;;;;;;;15.71;98.90;98988.59;4992542;28;20121;-67
2021/06/25 00:02:41;;;;;;;12.07;5.35;;;;;;;15.66;98.64;98972.06;4991749;28;20530;-68
2021/06/25 00:05:08;;;;;;;9.70;5.20;;;;;;;15.72;99.04;98988.38;4991570;28;20038;-66
2021/06/25 00:07:34;;;;;;;6.90;5.57;;;;;;;15.57;98.62;98980.56;4990186;28;20445;-67
2021/06/25 00:10:00;;;;;;;9.77;6.00;;;;;;;15.63;99.04;98978.81;4992470;28;20053;-67
2021/06/25 00:12:25;;;;;;;8.82;5.25;;;;;;;15.63;99.35;98988.88;4990795;28;20022;-67
2021/06/25 00:14:50;;;;;;;10.25;6.30;;;;;;;15.60;99.99;98970.28;4992093;28;20049;-67
2021/06/25 00:17:16;;;;;;;8.35;6.13;;;;;;;15.57;99.63;98977.84;4990419;28;20064;-67
2021/06/25 00:19:41;;;;;;;8.82;5.70;;;;;;;15.60;99.28;98973.81;4989907;28;20038;-67
2021/06/25 00:22:06;;;;;;;8.07;5.50;;;;;;;15.58;99.42;98978.66;4992767;28;20387;-67
2021/06/25 00:24:32;;;;;;;9.32;5.60;;;;;;;15.63;99.42;98980.72;4992107;28;20030;-66
2021/06/25 00:26:57;;;;;;;8.40;5.18;;;;;;;15.58;99.33;98965.03;4991907;28;20084;-67
2021/06/25 00:29:23;;;;;;;7.63;5.00;;;;;;;15.63;99.56;98972.53;4992132;28;20034;-67
2021/06/25 00:31:49;;;;;;;8.20;5.50;;;;;;;15.59;98.97;98942.16;4991770;28;20054;-68
2021/06/25 00:34:15;;;;;;;8.48;5.20;;;;;;;15.74;98.26;98982.66;4991572;28;20038;-67
2021/06/25 00:36:40;;;;;;;8.00;5.43;;;;;;;15.69;98.60;98977.94;4990773;28;20109;-68
2021/06/25 00:39:06;;;;;;;9.65;5.45;;;;;;;15.60;98.56;98978.44;4991948;28;20027;-67
2021/06/25 00:41:31;;;;;;;6.38;5.05;;;;;;;15.66;99.04;98988.41;4992598;28;20018;-68
2021/06/25 00:43:56;;;;;;;7.07;5.15;;;;;;;15.65;99.00;98981.31;4992694;28;20039;-68
2021/06/25 00:46:22;;;;;;;7.57;5.50;;;;;;;15.67;99.51;98982.75;4988019;28;20539;-68
2021/06/25 00:48:48;;;;;;;7.93;5.38;;;;;;;15.68;98.68;98975.38;4992271;28;20026;-68
2021/06/25 00:51:13;;;;;;;9.73;6.07;;;;;;;15.56;99.08;98968.00;4990841;28;20551;-69
2021/06/25 00:53:42;;;;;;;8.40;5.93;;;;;;;15.70;99.43;98982.31;4992108;28;20026;-69
2021/06/25 00:56:11;;;;;;;8.55;6.55;;;;;;;15.67;99.74;98976.47;4992098;28;20061;-68
2021/06/25 00:58:37;;;;;;;6.47;5.35;;;;;;;15.68;99.33;98969.94;4995509;28;20125;-68
2021/06/25 01:01:02;;;;;;;8.52;6.43;;;;;;;15.60;100.00;98981.19;4995000;28;20109;-68
2021/06/25 01:03:27;;;;;;;8.57;6.47;;;;;;;15.53;100.00;98981.25;4995916;28;20030;-69
2021/06/25 01:05:53;;;;;;;8.07;6.15;;;;;;;15.63;100.00;98987.00;4989574;28;20048;-68
2021/06/25 01:08:18;;;;;;;11.40;6.63;;;;;;;15.59;100.00;98982.22;4995902;28;20022;-68
2021/06/25 01:10:43;;;;;;;9.60;6.85;;;;;;;15.54;100.00;98986.50;4995102;28;20080;-68
2021/06/25 01:13:09;;;;;;;11.25;6.65;;;;;;;15.50;100.00;98985.28;4995882;28;20026;-68
2021/06/25 01:15:35;;;;;;;9.35;6.90;;;;;;;15.40;100.00;98965.91;4994332;28;20066;-68
2021/06/25 01:18:01;;;;;;;10.43;7.55;;;;;;;15.51;100.00;98978.78;4995795;28;20034;-68
2021/06/25 01:20:29;;;;;;;10.25;7.75;;;;;;;15.51;100.00;98976.06;4995549;28;20400;-68
2021/06/25 01:22:55;;;;;;;10.20;7.63;;;;;;;15.50;100.00;98974.38;4995831;28;20023;-68
2021/06/25 01:25:24;;;;;;;13.02;7.75;;;;;;;15.50;100.00;98985.28;4994796;28;20133;-68
2021/06/25 01:27:53;;;;;;;12.40;7.93;;;;;;;15.52;100.00;98983.16;4995371;28;20113;-68
2021/06/25 01:30:22;;;;;;;11.20;7.40;;;;;;;15.63;100.00;98978.81;4993518;28;20022;-68
2021/06/25 01:32:47;;;;;;;11.30;7.82;;;;;;;15.66;100.00;98972.88;4993768;28;20440;-68
2021/06/25 01:35:13;;;;;;;9.23;7.13;;;;;;;15.70;100.00;98978.75;4995540;28;20073;-68
2021/06/25 01:37:40;;;;;;;9.50;6.78;;;;;;;15.68;100.00;98975.38;4995668;28;20089;-68
2021/06/25 01:40:07;;;;;;;12.75;7.22;;;;;;;15.72;100.00;98966.56;4995127;28;20033;-68
2021/06/25 01:42:35;;;;;;;9.98;6.70;;;;;;;15.65;100.00;98943.13;4994741;28;20026;-68
2021/06/25 01:45:05;;;;;;;10.98;5.95;;;;;;;15.70;100.00;98965.94;4993374;28;20080;-69
2021/06/25 01:47:30;;;;;;;;;;;;;;;15.73;100.00;98964.66;4993933;28;20476;-69
2021/06/25 01:49:55;;;;;;;8.10;6.10;;;;;;;15.66;100.00;98940.16;4994540;28;19992;-68
2021/06/25 01:52:21;;;;;;;12.05;5.97;;;;;;;15.83;100.00;98962.19;4994521;28;20349;-68
2021/06/25 01:54:47;;;;;;;15.13;7.32;;;;;;;15.77;100.00;98963.09;4992979;28;20038;-69
2021/06/25 01:57:13;;;;;;;10.02;7.53;;;;;;;15.74;100.00;98963.56;4994288;28;20026;-69
2021/06/25 01:59:40;;;;;;;13.65;7.18;;;;;;;15.66;100.00;98958.41;4994303;28;20034;-68
2021/06/25 02:02:05;;;;;;;10.80;6.85;;;;;;;15.65;100.00;98964.94;4992789;28;20030;-69
2021/06/25 02:04:30;;;;;;;9.35;7.40;;;;;;;15.63;100.00;98967.91;5013912;28;20498;-68
2021/06/25 02:06:56;;;;;;;10.98;7.20;;;;;;;15.68;100.00;98959.03;5001195;28;20058;-68
2021/06/25 02:09:21;;;;;;;9.38;6.95;;;;;;;15.67;100.00;98969.09;4992398;28;20076;-68
2021/06/25 02:11:46;;;;;;;10.45;6.63;;;;;;;15.52;100.00;98942.25;4994431;28;20037;-68
2021/06/25 02:14:12;;;;;;;8.82;6.50;;;;;;;15.62;100.00;98963.53;4994262;28;20113;-65
2021/06/25 02:16:37;;;;;;;8.80;6.00;;;;;;;15.56;100.00;98967.16;4994431;28;20450;-66
2021/06/25 02:19:03;;;;;;;9.27;5.60;;;;;;;15.63;100.00;98969.81;4988890;28;20086;-66
2021/06/25 02:21:28;;;;;;;10.32;5.50;;;;;;;15.43;100.00;98951.84;4994109;28;20065;-66
2021/06/25 02:23:54;;;;;;;6.90;5.25;;;;;;;15.16;100.00;98935.00;4994349;28;20045;-67
2021/06/25 02:26:19;;;;;;;9.88;5.93;;;;;;;15.42;100.00;98973.88;4994034;28;20076;-66
2021/06/25 02:28:45;;;;;;;7.38;5.22;;;;;;;15.41;100.00;98964.88;4994681;28;20404;-66
2021/06/25 02:31:10;;;;;;;6.82;5.20;;;;;;;15.36;100.00;98958.44;4994198;28;20112;-67
2021/06/25 02:33:35;;;;;;;6.07;4.88;;;;;;;15.37;100.00;98968.28;4994122;28;20030;-67
2021/06/25 02:36:01;;;;;;;5.50;4.40;;;;;;;15.31;100.00;98970.03;4992496;28;20123;-66
2021/06/25 02:38:26;;;;;;;6.28;3.97;;;;;;;15.21;100.00;98967.84;4992493;28;20485;-66
2021/06/25 02:40:52;;;;;;;4.97;4.22;;;;;;;15.20;100.00;98947.13;4994033;28;20059;-67
2021/06/25 02:43:17;;;;;;;9.77;4.90;;;;;;;15.23;100.00;98964.91;4994098;28;20072;-67
2021/06/25 02:45:42;;;;;;;5.47;4.03;;;;;;;15.25;100.00;98970.97;4994252;28;20088;-67
2021/06/25 02:48:08;;;;;;;5.47;3.80;;;;;;;15.19;100.00;98950.88;4994194;28;20113;-67
2021/06/25 02:50:33;;;;;;;8.93;4.35;;;;;;;15.26;100.00;98956.25;4993644;28;20018;-67
2021/06/25 02:52:58;;;;;;;8.05;4.20;;;;;;;15.28;100.00;98963.16;4992006;28;20081;-67
2021/06/25 02:55:23;;;;;;;5.97;3.72;;;;;;;15.14;100.00;98939.84;4993868;28;20061;-66
2021/06/25 02:57:49;;;;;;;6.20;3.88;;;;;;;15.30;100.00;98962.91;4992977;28;20034;-67
2021/06/25 03:00:16;;;;;;;6.70;4.20;;;;;;;15.16;100.00;98935.00;4993714;28;20080;-67
2021/06/25 03:02:42;;;;;;;4.57;3.70;;;;;;;15.29;100.00;98956.63;4993285;28;20080;-67
2021/06/25 03:05:09;;;;;;;5.03;3.83;;;;;;;15.25;99.68;98957.34;4992949;28;20477;-67
2021/06/25 03:07:35;;;;;;;5.25;3.90;;;;;;;15.29;98.84;98955.78;4993140;28;20030;-67
2021/06/25 03:10:00;;;;;;;7.00;3.95;;;;;;;15.25;99.01;98960.06;4993848;28;20018;-67
2021/06/25 03:12:26;;;;;;;9.05;4.20;;;;;;;15.21;99.85;98956.13;4991670;28;20461;-67
2021/06/25 03:14:52;;;;;;;7.20;4.28;;;;;;;15.19;100.00;98955.50;4992374;28;20088;-67
2021/06/25 03:17:18;;;;;;;6.05;4.45;;;;;;;15.13;100.00;98962.72;4992939;28;20109;-67
2021/06/25 03:19:43;;;;;;;8.15;4.38;;;;;;;15.19;100.00;98960.97;4984184;28;20548;-68
2021/06/25 03:22:08;;;;;;;8.02;4.53;;;;;;;14.90;100.00;98923.38;4992781;28;20084;-67
2021/06/25 03:24:34;;;;;;;8.40;4.85;;;;;;;15.07;100.00;98939.13;4993368;28;20026;-67
2021/06/25 03:27:00;;;;;;;7.60;4.40;;;;;;;15.17;100.00;98946.72;4992949;28;20064;-67
2021/06/25 03:29:25;;;;;;;9.00;4.18;;;;;;;15.21;100.00;98953.38;4993970;28;20022;-67
2021/06/25 03:31:51;;;;;;;5.72;4.57;;;;;;;15.28;100.00;98949.50;4993378;28;20113;-67
2021/06/25 03:34:16;;;;;;;6.47;4.55;;;;;;;15.30;100.00;98957.44;4992502;28;20057;-67
2021/06/25 03:36:41;;;;;;;6.93;4.50;;;;;;;15.34;100.00;98955.94;4993333;28;20033;-67
2021/06/25 03:39:07;;;;;;;8.82;5.03;;;;;;;15.38;100.00;98954.44;4994006;28;20504;-67
2021/06/25 03:41:32;;;;;;;6.95;4.78;;;;;;;15.38;100.00;98959.03;4993921;28;20030;-68
2021/06/25 03:43:57;;;;;;;9.65;4.90;;;;;;;15.35;100.00;98960.31;4993005;28;20113;-68
2021/06/25 03:46:23;;;;;;;7.40;5.22;;;;;;;15.34;100.00;98961.38;4992803;28;20064;-68
2021/06/25 03:48:49;;;;;;;6.78;5.47;;;;;;;15.30;100.00;98952.00;4985710;28;20471;-73
2021/06/25 03:51:15;;;;;;;8.18;5.70;;;;;;;15.41;100.00;98962.13;4993792;28;20056;-67
2021/06/25 03:53:41;;;;;;;8.23;5.05;;;;;;;15.32;100.00;98953.44;4992430;28;20038;-67
2021/06/25 03:56:10;;;;;;;7.95;5.05;;;;;;;15.35;100.00;98965.75;4994459;28;20026;-68
2021/06/25 03:58:37;;;;;;;6.18;5.18;;;;;;;15.35;100.00;98960.31;4992396;28;20027;-68
2021/06/25 04:01:03;;;;;;;8.13;4.05;;;;;;;15.37;100.00;98962.81;4992128;28;20404;-67
2021/06/25 04:03:28;;;;;;;5.97;4.18;;;;;;;15.28;100.00;98954.13;4992267;28;20029;-67
2021/06/25 04:05:53;;;;;;;6.97;4.07;;;;;;;15.28;100.00;98960.41;4992488;28;20029;-67
2021/06/25 04:08:19;;;;;;;6.10;4.30;;;;;;;15.29;100.00;98959.34;4989237;28;20026;-67
2021/06/25 04:10:44;;;;;;;5.65;4.45;;;;;;;15.27;100.00;98963.38;4990300;28;20057;-68
2021/06/25 04:13:10;;;;;;;5.18;3.95;;;;;;;15.20;100.00;98960.75;4991065;28;20041;-72
2021/06/25 04:15:35;;;;;;;6.00;4.30;;;;;;;15.22;100.00;98953.19;4997895;28;20042;-69
2021/06/25 04:18:01;;;;;;;5.22;3.65;;;;;;;15.33;99.32;98946.09;4991239;28;20377;-69
2021/06/25 04:20:26;;;;;;;5.00;3.40;;;;;;;15.40;99.51;98955.00;4991412;28;20408;-69
2021/06/25 04:22:51;;;;;;;5.65;3.47;;;;;;;15.37;100.00;98957.38;4992235;28;20026;-70
2021/06/25 04:25:17;;;;;;;7.10;3.30;;;;;;;15.42;100.00;98955.59;4992510;28;20493;-70
2021/06/25 04:27:42;;;;;;;4.63;3.25;;;;;;;15.37;99.55;98947.28;4991804;28;20034;-70
2021/06/25 04:30:09;;;;;;;5.10;3.53;;;;;;;15.49;99.32;98961.81;4991067;28;20031;-71
2021/06/25 04:32:35;;;;;;;4.53;3.60;;;;;;;15.38;99.53;98940.78;4982293;28;20088;-72
2021/06/25 04:35:00;;;;;;;5.05;4.05;;;;;;;15.48;99.61;98948.41;4990332;28;20042;-71
2021/06/25 04:37:25;;;;;;;7.05;3.30;;;;;;;15.49;98.71;98950.91;4990028;28;20468;-70
2021/06/25 04:39:51;;;;;;;6.95;3.33;;;;;;;15.49;98.89;98945.44;4990193;28;20028;-70
2021/06/25 04:42:16;;;;;;;3.53;2.78;;;;;;;15.65;98.08;98959.50;4990208;28;20528;-71
2021/06/25 04:44:41;;;;;;;3.47;2.75;;;;;;;15.76;98.55;98961.44;4990274;28;20041;-71
2021/06/25 04:47:07;;;;;;;7.18;2.90;;;;;;;15.76;97.97;98967.72;4990934;28;20396;-72
2021/06/25 04:49:39;;;;;;;4.55;2.55;;;;;;;15.85;97.36;98970.97;4989808;28;20018;-71
2021/06/25 04:52:06;;;;;;;4.97;2.17;;;;;;;15.95;96.76;98962.19;4989955;28;20031;-71
2021/06/25 04:54:31;;;;;;;3.75;2.10;;;;;;;16.07;96.83;98959.50;4991385;28;20539;-71
2021/06/25 04:56:56;;;;;;;3.72;2.10;;;;;;;15.99;95.98;98956.03;4988870;28;20034;-71
2021/06/25 04:59:22;;;;;;;2.25;1.80;;;;;;;15.91;95.99;98937.28;4990992;28;20030;-71
2021/06/25 05:01:47;;;;;;;2.63;1.90;;;;;;;15.97;95.62;98951.88;4992414;28;20037;-70
2021/06/25 05:04:13;;;;;;;2.92;1.70;;;;;;;15.68;97.04;98937.22;4989410;28;20037;-70
2021/06/25 05:06:38;;;;;;;2.47;1.98;;;;;;;15.72;97.52;98952.91;4988057;28;20034;-73
2021/06/25 05:09:04;;;;;;;8.10;2.30;;;;;;;15.73;97.68;98959.19;4991964;28;20392;-68
2021/06/25 05:11:29;;;;;;;3.30;2.35;;;;;;;15.55;98.17;98938.22;4990904;28;20394;-70
2021/06/25 05:13:55;;;;;;;5.68;2.15;;;;;;;15.60;99.14;98943.00;4991992;28;20094;-70
2021/06/25 05:16:20;;;;;;;3.13;2.30;;;;;;;15.69;98.88;98955.25;4989972;28;20033;-70
2021/06/25 05:18:45;;;;;;;3.63;2.33;;;;;;;15.57;99.12;98957.94;4988710;28;20069;-66
2021/06/25 05:21:10;;;;;;;2.55;1.83;;;;;;;15.60;99.48;98962.91;4986154;28;20054;-65
2021/06/25 05:23:36;;;;;;;3.45;2.40;;;;;;;15.48;98.27;98938.34;4991013;28;20028;-67
2021/06/25 05:26:02;;;;;;;4.60;2.20;;;;;;;15.43;98.43;98937.34;4996334;28;20026;-65
2021/06/25 05:28:28;;;;;;;4.43;2.70;;;;;;;15.64;98.46;98957.81;4991435;28;20054;-64
2021/06/25 05:30:53;;;;;;;3.33;2.28;;;;;;;15.51;98.36;98956.97;4990670;28;20177;-64
2021/06/25 05:33:18;;;;;;;3.10;2.20;;;;;;;15.57;98.77;98963.38;4989364;28;20030;-66
2021/06/25 05:35:44;;;;;;;4.35;2.30;;;;;;;15.36;98.41;98947.53;4984800;28;20048;-64
2021/06/25 05:38:13;;;;;;;4.07;2.33;;;;;;;15.49;98.94;98964.53;4980709;28;20027;-65
2021/06/25 05:40:39;;;;;;;3.45;2.83;;;;;;;15.62;99.26;98968.97;4983899;28;20484;-65
2021/06/25 05:43:05;;;;;;;2.85;2.50;;;;;;;15.72;98.57;98965.72;4986018;28;20077;-65
2021/06/25 05:45:31;;;;;;;2.83;2.22;;;;;;;15.73;97.73;98961.91;4987652;28;20096;-65
2021/06/25 05:47:56;;;;;;;6.47;2.63;;;;;;;15.73;97.63;98964.66;4989999;28;20637;-64
2021/06/25 05:50:22;;;;;;;3.45;2.70;;;;;;;15.71;97.38;98969.50;4985287;28;20023;-64
2021/06/25 05:52:48;;;;;;;6.40;2.65;;;;;;;15.48;97.46;98951.97;4993048;28;20030;-64
2021/06/25 05:55:14;;;;;;;4.55;2.75;;;;;;;15.44;98.30;98969.84;4995511;28;20026;-64
2021/06/25 05:57:40;;;;;;;3.90;3.13;;;;;;;15.61;98.45;98975.47;4987679;28;20405;-67
2021/06/25 06:00:07;;;;;;;4.47;2.65;;;;;;;15.51;98.99;98970.59;4992010;28;20026;-65
2021/06/25 06:02:33;;;;;;;10.27;2.92;;;;;;;15.36;99.15;98975.63;4985483;28;20400;-71
2021/06/25 06:04:58;;;;;;;5.60;3.00;;;;;;;15.50;99.18;98968.09;4993633;28;20030;-66
2021/06/25 06:07:25;;;;;;;4.57;2.47;;;;;;;15.64;99.45;98971.44;4995192;28;20061;-66
2021/06/25 06:09:52;;;;;;;3.47;2.78;;;;;;;15.81;98.79;98974.41;4993347;28;20033;-63
2021/06/25 06:12:17;;;;;;;4.13;3.33;;;;;;;15.73;98.38;98961.91;4992561;28;20026;-63
2021/06/25 06:14:43;;;;;;;4.25;3.28;;;;;;;15.74;98.48;98956.22;4994807;28;20507;-63
2021/06/25 06:17:08;;;;;;;4.90;2.95;;;;;;;16.03;96.14;98983.69;4999122;28;20034;-63
2021/06/25 06:19:42;;;;;;;4.00;3.08;;;;;;;16.17;95.88;98979.69;4986362;28;20037;-66
2021/06/25 06:33:10;;;;;;;4.38;3.33;;;;;;;16.62;92.64;98992.75;4982680;28;20044;-66
2021/06/25 06:35:37;;;;;;;5.32;3.25;;;;;;;16.73;92.54;98985.63;4987222;28;20018;-63
2021/06/25 06:38:04;;;;;;;4.63;3.20;;;;;;;16.62;92.53;98990.03;4986433;28;20034;-64
2021/06/25 06:40:30;;;;;;;6.55;3.45;;;;;;;16.45;92.42;98997.25;4984651;28;20019;-64
2021/06/25 06:42:55;;;;;;;4.00;3.35;;;;;;;16.46;92.42;98989.94;4983366;28;20030;-63
2021/06/25 06:45:21;;;;;;;4.70;3.55;;;;;;;16.32;93.29;98994.75;4990466;28;20392;-70
2021/06/25 06:47:46;;;;;;;5.10;3.42;;;;;;;16.46;93.02;98996.22;5000581;28;20034;-68
2021/06/25 06:50:12;;;;;;;4.13;3.28;;;;;;;16.49;92.79;98992.19;4993922;28;20441;-69
2021/06/25 06:52:43;;;;;;;4.53;3.50;;;;;;;16.56;92.91;98992.91;4999384;28;20027;-66
2021/06/25 06:55:10;;;;;;;5.80;3.25;;;;;;;16.36;93.11;98982.31;4993925;28;20428;-65
2021/06/25 06:57:35;;;;;;;6.25;3.80;;;;;;;16.36;93.16;98996.78;4994498;28;20487;-66
2021/06/25 07:00:01;;;;;;;6.07;3.60;;;;;;;16.43;93.30;98989.31;4993907;28;20061;-69
2021/06/25 07:02:26;;;;;;;4.18;3.08;;;;;;;16.45;93.70;99010.91;4993998;28;20397;-66
2021/06/25 07:04:52;;;;;;;8.25;3.83;;;;;;;16.49;93.99;99001.19;4993815;28;20431;-65
2021/06/25 07:07:17;;;;;;;6.00;4.28;;;;;;;16.25;94.77;98981.25;4992483;28;20030;-68
2021/06/25 07:09:42;;;;;;;5.10;4.18;;;;;;;16.34;95.53;98985.28;4993577;28;20045;-66
2021/06/25 07:12:08;;;;;;;5.00;4.15;;;;;;;16.48;95.43;99006.88;4985037;28;20030;-65
2021/06/25 07:14:33;;;;;;;5.72;4.40;;;;;;;16.53;96.04;99001.53;4989154;28;20057;-68
2021/06/25 07:17:01;;;;;;;6.15;4.80;;;;;;;16.51;94.97;99006.44;4999240;28;20026;-66
2021/06/25 07:19:26;;;;;;;6.57;5.32;;;;;;;16.60;95.11;99005.81;4998522;28;20030;-66
2021/06/25 07:21:51;;;;;;;7.68;5.63;;;;;;;16.59;93.74;99017.00;4992468;28;20365;-70
2021/06/25 07:24:16;;;;;;;10.05;7.07;;;;;;;16.60;93.85;98999.53;4999600;28;20026;-66
2021/06/25 07:26:42;;;;;;;8.73;6.53;;;;;;;16.68;93.89;99004.63;4992529;28;20034;-67
2021/06/25 07:29:09;;;;;;;11.30;7.30;;;;;;;16.73;93.80;99015.69;4990868;28;20097;-71
2021/06/25 07:31:34;;;;;;;10.07;7.65;;;;;;;16.83;93.59;99017.84;4987570;28;20030;-64
2021/06/25 07:34:00;;;;;;;10.95;8.32;;;;;;;16.88;92.83;99008.94;4992561;28;20041;-65
2021/06/25 07:36:25;;;;;;;13.95;9.68;;;;;;;17.07;91.66;99018.66;4992615;28;20157;-64
2021/06/25 07:38:50;;;;;;;15.10;9.77;;;;;;;17.35;90.85;99020.63;4989582;28;20054;-65
2021/06/25 07:41:16;;;;;;;15.32;10.57;;;;;;;17.70;89.77;99012.28;4990491;28;20038;-66
2021/06/25 07:43:41;;;;;;;12.57;9.65;;;;;;;18.19;87.82;99003.59;4992423;28;20582;-63
2021/06/25 07:46:06;;;;;;;15.77;10.52;;;;;;;18.51;85.13;99003.00;4992214;28;20104;-64
2021/06/25 07:48:31;;;;;;;13.18;9.90;;;;;;;19.21;82.32;99013.38;4993626;28;20018;-63
2021/06/25 07:50:57;;;;;;;14.65;9.38;;;;;;;20.06;79.45;98999.22;4993129;28;20030;-63
2021/06/25 07:53:22;;;;;;;13.35;9.07;;;;;;;20.36;77.49;98995.94;4990939;28;20029;-64
2021/06/25 07:55:47;;;;;;;9.90;8.25;;;;;;;20.23;76.22;98999.94;4991952;28;20484;-63
2021/06/25 07:58:15;;;;;;;13.82;9.55;;;;;;;20.25;76.94;99005.16;4993050;28;20022;-63
2021/06/25 08:00:40;;;;;;;11.55;8.93;;;;;;;19.85;77.25;99007.25;4992340;28;20040;-67
2021/06/25 08:03:06;;;;;;;12.75;9.93;;;;;;;19.64;79.17;98999.88;4993061;28;20105;-63
2021/06/25 08:05:31;;;;;;;13.07;10.23;;;;;;;19.41;78.60;98988.13;4992964;28;20113;-63
2021/06/25 08:07:57;;;;;;;15.45;11.10;;;;;;;19.31;79.31;99007.19;4991789;28;20104;-64
2021/06/25 08:10:22;;;;;;;14.80;10.35;;;;;;;19.45;78.76;99002.13;4993732;28;20487;-64
2021/06/25 08:12:47;;;;;;;13.68;10.50;;;;;;;19.69;78.54;99013.69;4993160;28;20022;-61
2021/06/25 08:15:13;;;;;;;16.20;11.10;;;;;;;20.00;75.96;98987.38;4991342;28;20117;-64
2021/06/25 08:17:38;;;;;;;15.70;11.30;;;;;;;20.41;75.66;98997.88;4991590;28;20030;-64
2021/06/25 08:20:05;;;;;;;15.23;11.55;;;;;;;20.10;75.42;99005.88;4992890;28;20026;-66
2021/06/25 08:22:31;;;;;;;14.77;11.32;;;;;;;19.92;75.00;99010.63;4992376;28;20038;-62
2021/06/25 08:24:56;;;;;;;16.63;11.90;;;;;;;19.53;76.43;99015.41;4993089;28;20022;-65
2021/06/25 08:27:21;;;;;;;15.25;12.27;;;;;;;19.48;77.44;99018.91;4991665;28;20034;-65
2021/06/25 08:29:46;;;;;;;17.35;11.90;;;;;;;19.61;78.26;99008.63;4991841;28;20041;-65
2021/06/25 08:32:12;;;;;;;18.45;12.13;;;;;;;19.58;78.15;99009.16;4993005;28;20113;-65
2021/06/25 08:34:37;;;;;;;16.40;12.45;;;;;;;19.43;79.40;98999.63;4992902;28;20384;-65
2021/06/25 08:37:03;;;;;;;16.23;12.13;;;;;;;19.88;78.42;99006.75;4992864;28;20046;-66
2021/06/25 08:39:30;;;;;;;16.38;12.52;;;;;;;20.02;77.08;98995.38;4991425;28;20392;-66
2021/06/25 08:41:55;;;;;;;16.73;13.13;;;;;;;20.21;75.21;99010.38;4991877;28;20117;-63
2021/06/25 08:44:21;;;;;;;15.90;12.15;;;;;;;20.99;73.40;98991.44;4991676;28;20053;-64
2021/06/25 08:46:47;;;;;;;15.45;12.02;;;;;;;21.42;71.23;98986.69;4992577;28;20092;-63
2021/06/25 08:49:18;;;;;;;17.08;12.07;;;;;;;21.59;70.41;98999.44;4991503;28;20408;-65
2021/06/25 08:51:46;;;;;;;15.90;11.30;;;;;;;22.03;69.40;98996.19;4984992;28;20031;-65
2021/06/25 08:54:11;;;;;;;13.48;11.25;;;;;;;22.18;68.62;98998.13;4990100;28;20030;-64
2021/06/25 08:56:36;;;;;;;13.55;11.20;;;;;;;22.02;68.93;98995.38;4987868;28;20026;-64
2021/06/25 08:59:02;;;;;;;13.68;10.48;;;;;;;22.12;69.15;99004.75;4991488;28;20042;-63
2021/06/25 09:01:36;;;;;;;17.38;12.73;;;;;;;21.84;68.63;98999.47;4991067;28;20037;-64
2021/06/25 09:04:04;;;;;;;17.63;12.98;;;;;;;22.04;68.68;98995.94;4990262;28;20512;-64
2021/06/25 09:06:29;;;;;;;17.23;12.82;;;;;;;22.85;65.47;99001.72;4991035;28;20034;-65
2021/06/25 09:09:12;;;;;;;16.95;11.88;;;;;;;22.74;65.17;99003.63;4989925;28;20499;-63
2021/06/25 09:11:40;;;;;;;16.88;12.18;;;;;;;22.05;64.93;98994.81;4990304;28;20370;-65
2021/06/25 09:14:06;;;;;;;15.77;12.20;;;;;;;22.01;66.33;99007.50;4989290;28;20033;-65
2021/06/25 09:16:35;;;;;;;17.33;12.88;;;;;;;21.79;66.65;99001.38;4990323;28;20026;-65
2021/06/25 09:19:14;;;;;;;16.23;12.10;;;;;;;21.73;68.01;99010.75;4996152;28;20117;-63
2021/06/25 09:21:43;;;;;;;16.35;12.50;;;;;;;21.96;67.86;99001.97;5005226;28;20041;-65
2021/06/25 09:24:22;;;;;;;;;;;;;;;22.36;64.52;99008.66;4993599;28;20420;-63
2021/06/25 09:26:48;;;;;;;15.70;12.02;;;;;;;22.52;65.15;99004.78;4998235;28;19914;-64
2021/06/25 09:29:24;;;;;;;15.82;12.15;;;;;;;22.58;65.31;98997.31;4989842;28;20068;-64
2021/06/25 09:32:05;;;;;;;14.48;10.80;;;;;;;22.88;62.77;99003.91;4989279;28;20022;-65
2021/06/25 09:34:36;;;;;;;12.50;10.55;;;;;;;23.00;61.50;99004.44;4996068;28;20037;-63
2021/06/25 09:37:03;;;;;;;14.20;10.20;;;;;;;23.02;62.26;99005.00;4976093;28;20054;-65
2021/06/25 09:39:29;;;;;;;11.70;9.50;;;;;;;22.59;63.67;99009.19;4993622;28;20037;-63
2021/06/25 09:41:54;;;;;;;16.30;10.75;;;;;;;22.64;64.27;99000.94;4994018;28;20026;-64
2021/06/25 09:44:20;;;;;;;12.70;9.48;;;;;;;22.49;64.32;99010.03;4993884;28;20050;-64
2021/06/25 09:46:54;;;;;;;9.45;8.18;;;;;;;22.60;63.23;99013.59;4995452;28;20026;-64
2021/06/25 09:49:27;;;;;;;10.98;8.65;;;;;;;22.86;60.70;99009.69;4994927;28;20042;-63
2021/06/25 09:51:53;;;;;;;10.95;9.07;;;;;;;22.73;61.52;99013.84;4987492;28;20188;-64
2021/06/25 09:54:19;;;;;;;5.32;4.40;;;;;;;21.56;65.76;99021.97;4974227;28;20038;-63
2021/06/25 09:56:51;;;;;;;4.03;2.90;;;;;;;21.05;66.77;99016.22;4991629;28;20026;-64
2021/06/25 10:01:49;;;;;;;2.67;2.20;;;;;;;19.41;71.86;99034.75;4992349;28;20030;-64
2021/06/25 10:04:14;;;;;;;4.40;2.60;;;;;;;18.97;73.57;99022.94;4990336;28;20488;-64
2021/06/25 10:06:40;;;;;;;4.43;3.20;;;;;;;18.16;76.55;99006.84;4991738;28;20044;-64
2021/06/25 10:09:06;;;;;;;5.47;3.00;;;;;;;18.17;78.06;99033.97;4991166;28;20030;-64
2021/06/25 10:11:33;;;;;;;4.07;3.38;;;;;;;17.86;80.26;99038.06;4991498;28;20026;-64
2021/06/25 10:14:01;;;;;;;4.90;3.40;;;;;;;17.94;79.58;99031.34;4991658;28;20505;-65
2021/06/25 10:16:27;;;;;;;4.53;3.25;;;;;;;18.24;78.83;99035.72;4978794;28;20033;-64
2021/06/25 10:18:55;;;;;;;4.45;3.20;;;;;;;18.07;79.93;99036.50;4989650;28;20034;-63
2021/06/25 10:21:23;;;;;;;5.53;3.70;;;;;;;17.94;79.47;99023.97;4991209;28;20109;-65
2021/06/25 10:23:52;;;;;;;4.68;3.60;;;;;;;18.36;78.41;99044.69;4990957;28;20532;-65
2021/06/25 10:26:19;;;;;;;5.75;3.97;;;;;;;18.46;78.25;99038.56;4990479;28;20060;-65
2021/06/25 10:28:46;;;;;;;5.55;4.40;;;;;;;18.48;78.24;99036.41;4990811;28;20031;-64
2021/06/25 10:31:14;;;;;;;5.78;4.80;;;;;;;18.74;77.16;99029.41;4989577;28;20080;-65
2021/06/25 10:33:40;;;;;;;6.65;5.10;;;;;;;18.41;78.43;99036.56;4991443;28;20108;-65
2021/06/25 10:36:09;;;;;;;9.02;5.68;;;;;;;17.78;81.27;99034.84;4991432;28;20034;-64
2021/06/25 10:38:35;;;;;;;8.80;5.43;;;;;;;18.23;80.22;99034.88;4989913;28;20034;-64
2021/06/25 10:41:04;;;;;;;6.55;4.82;;;;;;;18.72;77.91;99039.78;4991956;28;20041;-64
2021/06/25 10:43:50;;;;;;;6.93;5.47;;;;;;;19.40;75.54;99045.97;4990817;28;20026;-65
2021/06/25 10:46:24;;;;;;;8.65;6.63;;;;;;;18.98;76.89;99041.03;4990041;28;20032;-64
2021/06/25 10:48:53;;;;;;;13.10;8.68;;;;;;;18.91;76.11;99037.63;4990453;28;20506;-64
2021/06/25 10:51:25;;;;;;;12.07;8.48;;;;;;;19.66;73.33;99044.38;4991078;28;20061;-65
2021/06/25 10:54:21;;;;;;;10.75;7.88;;;;;;;20.00;72.77;99046.97;4988078;28;20038;-65
2021/06/25 10:56:49;;;;;;;11.07;8.45;;;;;;;20.02;71.98;99040.13;4985325;28;20022;-64
2021/06/25 10:59:27;;;;;;;13.95;9.48;;;;;;;20.00;72.61;99049.72;4989530;28;20034;-65
2021/06/25 11:01:54;;;;;;;12.18;8.93;;;;;;;21.14;69.08;99039.34;4990865;28;20054;-63
2021/06/25 11:04:41;;;;;;;13.25;9.07;;;;;;;20.72;69.80;99045.69;4990352;28;20042;-62
2021/06/25 11:07:17;;;;;;;14.13;9.98;;;;;;;21.40;66.72;99037.59;4990983;28;20708;-65
2021/06/25 11:09:51;;;;;;;13.70;9.85;;;;;;;21.02;68.50;99039.59;4984963;28;20060;-65
2021/06/25 11:12:26;;;;;;;14.30;9.45;;;;;;;21.38;66.89;99035.13;4993785;28;20032;-66
2021/06/25 11:14:55;;;;;;;12.32;9.38;;;;;;;20.98;68.06;99036.50;4992403;28;20033;-67
2021/06/25 11:17:49;;;;;;;15.27;10.30;;;;;;;20.94;68.52;99038.16;4994013;28;20476;-66
2021/06/25 11:20:32;;;;;;;14.20;9.30;;;;;;;22.21;64.45;99033.44;4989193;28;20038;-69
2021/06/25 11:23:13;;;;;;;13.30;9.57;;;;;;;23.28;60.76;99021.47;4989135;28;20090;-68
2021/06/25 11:26:03;;;;;;;12.45;8.27;;;;;;;24.95;55.46;99028.16;4989053;28;20484;-68
2021/06/25 11:28:36;;;;;;;13.20;10.30;;;;;;;23.75;57.96;99031.25;4985417;28;20037;-68
2021/06/25 11:31:05;;;;;;;12.57;8.75;;;;;;;24.69;55.99;99023.69;4986663;28;20026;-71
2021/06/25 11:33:53;;;;;;;14.82;10.55;;;;;;;23.49;58.58;99016.72;4992923;28;20499;-69
2021/06/25 11:36:41;;;;;;;11.85;9.50;;;;;;;;;;4991298;28;20026;-69
2021/06/25 11:39:21;;;;;;;13.05;9.32;;;;;;;22.83;61.69;99023.22;4992157;28;20030;-68